Time;durP1;ratioP1;P1;durP2;ratioP2;P2;SDS_P1;SDS_P2;PMS_P1;PMS_P2;Temp;Humidity;BMP_temperature;BMP_pressure;BME280_temperature;BME280_humidity;BME280_pressure;Samples;Min_cycle;Max_cycle;Signal;HPM_P1;HPM_P2
2024/02/05 00:00:04;;;;;;;27.70;9.87;;;;;;;;;;5090879;28;20284;-79
2024/02/05 00:02:33;;;;;;;23.80;9.40;;;;;;;;;;5090741;28;20706;-80
2024/02/05 00:05:00;;;;;;;25.63;9.90;;;;;;;;;;5091921;28;20232;-80
2024/02/05 00:07:28;;;;;;;32.53;10.70;;;;;;;;;;5095132;28;20245;-79
2024/02/05 00:09:55;;;;;;;28.07;10.43;;;;;;;;;;5094871;28;20738;-79
2024/02/05 00:12:22;;;;;;;29.40;9.87;;;;;;;;;;5059012;28;20298;-80
2024/02/05 00:14:49;;;;;;;22.73;9.33;;;;;;;;;;5054928;28;20294;-79
2024/02/05 00:17:16;;;;;;;26.97;10.63;;;;;;;;;;5054507;28;20206;-79
2024/02/05 00:19:45;;;;;;;25.00;9.30;;;;;;;;;;5054741;28;20203;-79
2024/02/05 00:22:12;;;;;;;32.30;10.93;;;;;;;;;;5054902;28;20712;-79
2024/02/05 00:24:39;;;;;;;32.37;10.97;;;;;;;;;;5054368;28;20327;-79
2024/02/05 00:27:07;;;;;;;30.13;10.07;;;;;;;;;;5054299;28;20607;-78
2024/02/05 00:29:34;;;;;;;27.77;9.87;;;;;;;;;;5054798;28;20199;-79
2024/02/05 00:32:01;;;;;;;31.87;10.10;;;;;;;;;;5054087;28;20196;-79
2024/02/05 00:34:29;;;;;;;29.67;10.03;;;;;;;;;;5054514;28;20295;-78
2024/02/05 00:36:58;;;;;;;29.27;10.40;;;;;;;;;;5062857;28;20737;-79
2024/02/05 00:39:25;;;;;;;29.43;9.63;;;;;;;;;;5089237;28;20667;-80
2024/02/05 00:41:52;;;;;;;23.07;9.43;;;;;;;;;;5074321;28;20671;-79
2024/02/05 00:44:19;;;;;;;29.23;9.40;;;;;;;;;;5074437;28;20230;-79
2024/02/05 00:46:46;;;;;;;24.30;9.47;;;;;;;;;;5074260;28;20213;-78
2024/02/05 00:49:14;;;;;;;28.93;9.70;;;;;;;;;;5073669;28;20234;-78
2024/02/05 00:51:41;;;;;;;25.07;9.73;;;;;;;;;;5073769;28;20668;-79
2024/02/05 00:54:09;;;;;;;32.93;9.13;;;;;;;;;;5074002;28;20199;-79
2024/02/05 00:56:37;;;;;;;25.53;10.00;;;;;;;;;;5073668;28;20223;-79
2024/02/05 00:59:04;;;;;;;25.43;9.83;;;;;;;;;;5073415;28;20621;-79
2024/02/05 01:01:33;;;;;;;23.70;8.33;;;;;;;;;;5074042;28;20196;-78
2024/02/05 01:04:00;;;;;;;25.77;9.40;;;;;;;;;;5073954;28;20231;-79
2024/02/05 01:06:27;;;;;;;28.27;8.93;;;;;;;;;;5073526;28;20286;-80
2024/02/05 01:08:54;;;;;;;23.17;9.10;;;;;;;;;;5073828;28;20682;-79
2024/02/05 01:11:23;;;;;;;28.80;9.03;;;;;;;;;;5073562;28;20286;-79
2024/02/05 01:13:51;;;;;;;28.87;9.00;;;;;;;;;;5073261;28;20721;-78
2024/02/05 01:16:17;;;;;;;28.77;9.80;;;;;;;;;;5072503;28;20620;-79
2024/02/05 01:18:44;;;;;;;22.97;8.33;;;;;;;;;;5072922;28;20218;-78
2024/02/05 01:21:11;;;;;;;21.57;7.93;;;;;;;;;;5073790;28;20195;-79
2024/02/05 01:23:38;;;;;;;25.07;9.10;;;;;;;;;;5073455;28;20310;-80
2024/02/05 01:26:06;;;;;;;26.90;8.47;;;;;;;;;;5073407;28;20787;-79
2024/02/05 01:28:35;;;;;;;19.57;7.37;;;;;;;;;;5073186;28;20199;-79
2024/02/05 01:31:02;;;;;;;25.50;7.60;;;;;;;;;;5073221;28;20688;-80
2024/02/05 01:33:30;;;;;;;26.83;7.97;;;;;;;;;;5073164;28;20648;-79
2024/02/05 01:35:57;;;;;;;26.50;8.80;;;;;;;;;;5073126;28;20285;-79
2024/02/05 01:38:24;;;;;;;23.67;7.67;;;;;;;;;;5087626;28;20298;-78
2024/02/05 01:40:51;;;;;;;23.43;7.67;;;;;;;;;;5093734;28;20206;-79
2024/02/05 01:43:18;;;;;;;19.57;7.27;;;;;;;;;;5092864;28;20199;-79
2024/02/05 01:45:47;;;;;;;26.20;7.63;;;;;;;;;;5093626;28;20198;-79
2024/02/05 01:48:17;;;;;;;25.67;7.93;;;;;;;;;;5092917;28;20289;-79
2024/02/05 01:50:44;;;;;;;27.33;8.37;;;;;;;;;;5093147;28;20199;-78
2024/02/05 01:53:11;;;;;;;20.20;7.20;;;;;;;;;;5093311;28;20201;-79
2024/02/05 01:55:39;;;;;;;22.33;6.90;;;;;;;;;;5093105;28;20190;-79
2024/02/05 01:58:06;;;;;;;19.57;7.47;;;;;;;;;;5092663;28;20290;-79
2024/02/05 02:00:33;;;;;;;26.77;8.03;;;;;;;;;;5093025;28;20205;-79
2024/02/05 02:03:02;;;;;;;19.77;7.30;;;;;;;;;;5093268;28;20218;-79
2024/02/05 02:05:30;;;;;;;19.83;7.13;;;;;;;;;;5092881;28;20222;-79
2024/02/05 02:07:57;;;;;;;23.20;7.40;;;;;;;;;;5092948;28;20202;-79
2024/02/05 02:10:24;;;;;;;30.60;8.07;;;;;;;;;;5092832;28;20290;-78
2024/02/05 02:12:51;;;;;;;22.30;7.33;;;;;;;;;;5092216;28;20287;-79
2024/02/05 02:15:19;;;;;;;24.03;7.60;;;;;;;;;;5092969;28;20202;-79
2024/02/05 02:17:47;;;;;;;22.27;7.13;;;;;;;;;;5092644;28;20281;-79
2024/02/05 02:20:16;;;;;;;17.60;6.93;;;;;;;;;;5092704;28;20194;-78
2024/02/05 02:22:47;;;;;;;22.37;7.37;;;;;;;;;;5092702;28;20281;-79
2024/02/05 02:25:16;;;;;;;22.77;8.13;;;;;;;;;;5092506;28;20222;-79
2024/02/05 02:27:44;;;;;;;26.33;8.20;;;;;;;;;;5091363;28;20318;-79
2024/02/05 02:30:13;;;;;;;27.53;7.37;;;;;;;;;;5092990;28;20263;-79
2024/02/05 02:32:43;;;;;;;23.53;7.47;;;;;;;;;;5092369;28;20199;-79
2024/02/05 02:35:13;;;;;;;22.07;7.53;;;;;;;;;;5092379;28;20678;-78
2024/02/05 02:37:55;;;;;;;24.33;7.30;;;;;;;;;;5092122;28;20230;-79
2024/02/05 02:40:25;;;;;;;28.10;7.53;;;;;;;;;;5092056;28;20285;-79
2024/02/05 02:42:55;;;;;;;28.03;8.37;;;;;;;;;;5092464;28;20284;-79
2024/02/05 02:45:22;;;;;;;28.00;7.90;;;;;;;;;;5092317;28;20258;-78
2024/02/05 02:47:50;;;;;;;24.20;7.80;;;;;;;;;;5091808;28;20194;-79
2024/02/05 02:50:17;;;;;;;21.43;7.30;;;;;;;;;;5092192;28;20644;-78
2024/02/05 02:52:44;;;;;;;26.27;8.03;;;;;;;;;;5092022;28;20194;-80
2024/02/05 02:55:11;;;;;;;24.57;7.63;;;;;;;;;;5091293;28;20293;-80
2024/02/05 02:57:40;;;;;;;26.20;7.83;;;;;;;;;;5091973;28;20230;-79
2024/02/05 03:00:09;;;;;;;23.00;7.73;;;;;;;;;;5092300;28;20237;-79
2024/02/05 03:02:36;;;;;;;25.20;8.47;;;;;;;;;;5091880;28;20194;-79
2024/02/05 03:05:03;;;;;;;25.80;8.40;;;;;;;;;;5091487;28;20226;-80
2024/02/05 03:07:34;;;;;;;19.47;7.30;;;;;;;;;;5091873;28;20201;-78
2024/02/05 03:10:03;;;;;;;29.40;8.57;;;;;;;;;;5091698;28;20244;-79
2024/02/05 03:12:30;;;;;;;25.73;8.83;;;;;;;;;;5091874;28;20203;-79
2024/02/05 03:14:58;;;;;;;28.10;8.97;;;;;;;;;;5091430;28;20289;-80
2024/02/05 03:17:26;;;;;;;26.60;9.10;;;;;;;;;;5091375;28;20671;-79
2024/02/05 03:19:53;;;;;;;25.93;7.67;;;;;;;;;;5091818;28;20293;-80
2024/02/05 03:22:20;;;;;;;17.87;7.93;;;;;;;;;;5091668;28;20263;-79
2024/02/05 03:24:47;;;;;;;21.77;8.13;;;;;;;;;;5090948;28;20234;-80
2024/02/05 03:27:15;;;;;;;27.07;8.17;;;;;;;;;;5091371;28;20283;-80
2024/02/05 03:29:42;;;;;;;21.80;7.70;;;;;;;;;;5091516;28;20205;-79
2024/02/05 03:32:10;;;;;;;24.00;8.10;;;;;;;;;;5091517;28;20191;-80
2024/02/05 03:34:38;;;;;;;28.03;8.30;;;;;;;;;;5091459;28;20825;-79
2024/02/05 03:37:05;;;;;;;25.50;7.90;;;;;;;;;;5091255;28;20236;-80
2024/02/05 03:39:32;;;;;;;23.13;7.77;;;;;;;;;;5090692;28;20222;-78
2024/02/05 03:41:59;;;;;;;27.93;8.27;;;;;;;;;;5091302;28;20612;-79
2024/02/05 03:44:27;;;;;;;27.13;8.47;;;;;;;;;;5090987;28;20668;-80
2024/02/05 03:46:54;;;;;;;22.23;8.20;;;;;;;;;;5091208;28;20284;-78
2024/02/05 03:49:22;;;;;;;25.53;8.17;;;;;;;;;;5091226;28;20298;-79
2024/02/05 03:51:50;;;;;;;27.07;9.00;;;;;;;;;;5091176;28;20740;-80
2024/02/05 03:54:17;;;;;;;20.63;7.33;;;;;;;;;;5081135;28;20982;-78
2024/02/05 03:56:44;;;;;;;21.27;7.73;;;;;;;;;;5061326;28;20219;-79
2024/02/05 03:59:11;;;;;;;22.07;8.13;;;;;;;;;;5070700;28;20272;-79
2024/02/05 04:01:39;;;;;;;17.87;7.87;;;;;;;;;;5070848;28;20272;-80
2024/02/05 04:04:07;;;;;;;21.67;8.00;;;;;;;;;;5070885;28;20278;-79
2024/02/05 04:06:35;;;;;;;26.67;9.10;;;;;;;;;;5070981;28;20196;-79
2024/02/05 04:09:02;;;;;;;21.60;8.57;;;;;;;;;;5070598;28;20274;-79
2024/02/05 04:11:30;;;;;;;28.07;9.33;;;;;;;;;;5071104;28;20283;-79
2024/02/05 04:13:57;;;;;;;26.93;9.17;;;;;;;;;;5070380;28;20751;-79
2024/02/05 04:16:24;;;;;;;25.03;7.73;;;;;;;;;;5070547;28;20664;-80
2024/02/05 04:18:51;;;;;;;23.23;8.13;;;;;;;;;;5070922;28;20884;-79
2024/02/05 04:21:18;;;;;;;19.40;7.47;;;;;;;;;;5070885;28;20247;-79
2024/02/05 04:23:47;;;;;;;24.60;8.33;;;;;;;;;;5070653;28;20286;-79
2024/02/05 04:26:17;;;;;;;21.13;7.97;;;;;;;;;;5070483;28;20329;-79
2024/02/05 04:28:45;;;;;;;22.40;7.80;;;;;;;;;;5070654;28;20290;-79
2024/02/05 04:31:12;;;;;;;19.47;7.80;;;;;;;;;;5070458;28;20192;-80
2024/02/05 04:33:40;;;;;;;20.43;8.63;;;;;;;;;;5070826;28;20195;-80
2024/02/05 04:36:10;;;;;;;25.30;8.63;;;;;;;;;;5070741;28;20195;-79
2024/02/05 04:38:37;;;;;;;23.40;8.10;;;;;;;;;;5050167;28;20200;-79
2024/02/05 04:41:05;;;;;;;27.20;8.53;;;;;;;;;;5050607;28;20290;-79
2024/02/05 04:43:32;;;;;;;25.83;8.80;;;;;;;;;;5050491;28;20238;-80
2024/02/05 04:46:00;;;;;;;23.63;8.00;;;;;;;;;;5049767;28;20321;-79
2024/02/05 04:48:27;;;;;;;25.10;8.93;;;;;;;;;;5050583;28;20196;-79
2024/02/05 04:50:55;;;;;;;24.40;9.43;;;;;;;;;;5050714;28;20238;-79
2024/02/05 04:53:22;;;;;;;24.10;9.23;;;;;;;;;;5053919;28;20230;-78
2024/02/05 04:55:49;;;;;;;26.20;9.63;;;;;;;;;;5054347;28;20283;-79
2024/02/05 04:58:17;;;;;;;22.83;9.13;;;;;;;;;;5054113;28;20647;-80
2024/02/05 05:00:45;;;;;;;26.57;9.53;;;;;;;;;;5054059;28;20286;-79
2024/02/05 05:03:12;;;;;;;22.67;9.10;;;;;;;;;;5053549;28;20223;-78
2024/02/05 05:05:39;;;;;;;24.30;9.00;;;;;;;;;;5053307;28;20258;-79
2024/02/05 05:08:06;;;;;;;19.97;8.27;;;;;;;;;;5053971;28;20192;-80
2024/02/05 05:10:33;;;;;;;24.53;9.30;;;;;;;;;;5054171;28;20222;-80
2024/02/05 05:13:03;;;;;;;22.50;8.67;;;;;;;;;;5053619;28;20203;-79
2024/02/05 05:15:31;;;;;;;25.20;8.13;;;;;;;;;;5053767;28;20207;-78
2024/02/05 05:17:59;;;;;;;21.83;9.00;;;;;;;;;;5053647;28;20298;-79
2024/02/05 05:20:26;;;;;;;20.87;8.33;;;;;;;;;;5053047;28;20287;-78
2024/02/05 05:22:53;;;;;;;19.80;8.50;;;;;;;;;;5053768;28;20219;-80
2024/02/05 05:25:20;;;;;;;28.77;8.20;;;;;;;;;;5053261;28;20344;-79
2024/02/05 05:27:47;;;;;;;28.07;8.57;;;;;;;;;;5053145;28;20738;-78
2024/02/05 05:30:15;;;;;;;22.17;8.23;;;;;;;;;;5053761;28;20227;-78
2024/02/05 05:32:43;;;;;;;24.90;8.63;;;;;;;;;;5053440;28;20199;-79
2024/02/05 05:35:10;;;;;;;26.70;7.67;;;;;;;;;;5053121;28;20223;-79
2024/02/05 05:37:38;;;;;;;23.77;7.87;;;;;;;;;;5073356;28;20289;-80
2024/02/05 05:40:05;;;;;;;21.83;7.70;;;;;;;;;;5083826;28;20227;-78
2024/02/05 05:42:32;;;;;;;22.27;8.03;;;;;;;;;;5063299;28;20207;-79
2024/02/05 05:45:00;;;;;;;21.73;8.30;;;;;;;;;;5062966;28;20228;-79
2024/02/05 05:47:27;;;;;;;20.87;7.27;;;;;;;;;;5053090;28;20672;-79
2024/02/05 05:49:55;;;;;;;18.93;7.77;;;;;;;;;;5052165;28;20706;-79
2024/02/05 05:52:23;;;;;;;21.57;7.87;;;;;;;;;;5053074;28;20578;-79
2024/02/05 05:54:50;;;;;;;18.90;7.50;;;;;;;;;;5053127;28;20202;-80
2024/02/05 05:57:17;;;;;;;26.17;8.03;;;;;;;;;;5052852;28;20286;-79
2024/02/05 05:59:44;;;;;;;25.13;7.83;;;;;;;;;;5052835;28;20240;-78
2024/02/05 06:02:11;;;;;;;18.10;7.77;;;;;;;;;;5052426;28;20700;-79
2024/02/05 06:04:40;;;;;;;22.60;8.20;;;;;;;;;;5051735;28;20570;-79
2024/02/05 06:07:09;;;;;;;19.63;7.83;;;;;;;;;;5052665;28;20287;-79
2024/02/05 06:09:36;;;;;;;23.90;8.00;;;;;;;;;;5052480;28;20229;-79
2024/02/05 06:12:03;;;;;;;28.87;8.33;;;;;;;;;;5052312;28;20191;-79
2024/02/05 06:14:31;;;;;;;24.47;8.13;;;;;;;;;;5067340;28;20294;-78
2024/02/05 06:16:59;;;;;;;20.77;7.50;;;;;;;;;;5065599;28;20203;-78
2024/02/05 06:19:26;;;;;;;23.80;8.23;;;;;;;;;;5072683;28;20199;-78
2024/02/05 06:21:53;;;;;;;24.20;9.43;;;;;;;;;;5072342;28;20245;-80
2024/02/05 06:24:22;;;;;;;20.57;7.60;;;;;;;;;;5072416;28;20263;-78
2024/02/05 06:26:49;;;;;;;23.13;8.33;;;;;;;;;;5071940;28;20231;-79
2024/02/05 06:29:16;;;;;;;19.63;7.17;;;;;;;;;;5072300;28;20286;-79
2024/02/05 06:31:43;;;;;;;20.90;7.70;;;;;;;;;;5072180;28;20314;-79
2024/02/05 06:34:10;;;;;;;22.30;7.87;;;;;;;;;;5071889;28;20662;-79
2024/02/05 06:36:37;;;;;;;26.80;9.33;;;;;;;;;;5072299;28;20264;-80
2024/02/05 06:39:05;;;;;;;21.10;8.33;;;;;;;;;;5071955;28;20256;-79
2024/02/05 06:41:33;;;;;;;23.03;7.87;;;;;;;;;;5067847;28;20226;-78
2024/02/05 06:44:00;;;;;;;19.10;7.90;;;;;;;;;;5067955;28;20227;-79
2024/02/05 06:46:28;;;;;;;23.53;7.67;;;;;;;;;;5067684;28;20223;-82
2024/02/05 06:48:55;;;;;;;25.83;7.70;;;;;;;;;;5071931;28;20210;-82
2024/02/05 06:51:22;;;;;;;18.83;8.07;;;;;;;;;;5072143;28;20191;-82
2024/02/05 06:53:49;;;;;;;26.20;7.60;;;;;;;;;;5071901;28;20237;-82
2024/02/05 06:56:16;;;;;;;25.83;7.77;;;;;;;;;;5072163;28;20226;-82
2024/02/05 06:58:45;;;;;;;18.87;7.33;;;;;;;;;;5072074;28;20237;-81
2024/02/05 07:01:13;;;;;;;22.43;7.70;;;;;;;;;;5071850;28;20683;-82
2024/02/05 07:03:41;;;;;;;26.97;7.50;;;;;;;;;;5071580;28;20293;-82
2024/02/05 07:06:08;;;;;;;22.53;7.50;;;;;;;;;;5072154;28;20672;-82
2024/02/05 07:08:35;;;;;;;24.60;7.20;;;;;;;;;;5071781;28;20199;-82
2024/02/05 07:11:02;;;;;;;21.87;8.13;;;;;;;;;;5071649;28;20587;-82
2024/02/05 07:13:29;;;;;;;28.50;7.47;;;;;;;;;;5071605;28;20685;-82
2024/02/05 07:15:58;;;;;;;22.57;6.93;;;;;;;;;;5071657;28;20293;-80
2024/02/05 07:18:26;;;;;;;21.57;7.17;;;;;;;;;;5071745;28;20282;-82
2024/02/05 07:20:53;;;;;;;18.17;6.93;;;;;;;;;;5071869;28;20195;-82
2024/02/05 07:23:20;;;;;;;17.40;6.63;;;;;;;;;;5071241;28;20203;-82
2024/02/05 07:25:47;;;;;;;16.50;5.30;;;;;;;;;;5071523;28;20249;-82
2024/02/05 07:28:14;;;;;;;17.83;6.17;;;;;;;;;;5071758;28;20225;-82
2024/02/05 07:30:42;;;;;;;16.93;6.40;;;;;;;;;;5071125;28;20289;-82
2024/02/05 07:33:10;;;;;;;19.23;6.67;;;;;;;;;;5071474;28;20195;-82
2024/02/05 07:35:37;;;;;;;26.57;7.07;;;;;;;;;;5071424;28;20195;-81
2024/02/05 07:38:05;;;;;;;15.13;7.53;;;;;;;;;;5071436;28;20727;-81
2024/02/05 07:40:32;;;;;;;19.50;6.80;;;;;;;;;;5071284;28;20690;-82
2024/02/05 07:42:59;;;;;;;16.40;6.70;;;;;;;;;;5071286;28;20746;-81
2024/02/05 07:45:26;;;;;;;15.70;5.70;;;;;;;;;;5071175;28;20635;-81
2024/02/05 07:47:54;;;;;;;16.50;6.00;;;;;;;;;;5071237;28;20534;-80
2024/02/05 07:50:22;;;;;;;15.87;5.07;;;;;;;;;;5071237;28;20278;-82
2024/02/05 07:52:50;;;;;;;17.43;6.00;;;;;;;;;;5071246;28;20195;-82
2024/02/05 07:55:17;;;;;;;21.30;5.40;;;;;;;;;;5071722;28;20191;-82
2024/02/05 07:57:44;;;;;;;16.53;5.80;;;;;;;;;;5071290;28;20203;-82
2024/02/05 08:00:12;;;;;;;17.90;6.47;;;;;;;;;;5071128;28;20195;-81
2024/02/05 08:02:40;;;;;;;17.43;6.07;;;;;;;;;;5071363;28;20205;-82
2024/02/05 08:05:08;;;;;;;21.17;6.00;;;;;;;;;;5071199;28;20202;-81
2024/02/05 08:07:36;;;;;;;18.30;6.40;;;;;;;;;;5071072;28;20233;-81
2024/02/05 08:10:04;;;;;;;16.30;5.37;;;;;;;;;;5071124;28;20195;-82
2024/02/05 08:12:31;;;;;;;15.33;5.60;;;;;;;;;;5071052;28;20227;-83
2024/02/05 08:15:00;;;;;;;15.40;5.73;;;;;;;;;;5070897;28;20628;-81
2024/02/05 08:17:27;;;;;;;15.97;5.43;;;;;;;;;;5071036;28;20289;-81
2024/02/05 08:19:54;;;;;;;18.57;5.93;;;;;;;;;;5071205;28;20229;-81
2024/02/05 08:22:22;;;;;;;17.43;5.57;;;;;;;;;;5070877;28;20201;-82
2024/02/05 08:24:51;;;;;;;18.47;6.07;;;;;;;;;;5071090;28;20199;-81
2024/02/05 08:27:18;;;;;;;22.13;5.73;;;;;;;;;;5073330;28;20246;-82
2024/02/05 08:29:45;;;;;;;20.63;4.90;;;;;;;;;;5073489;28;20286;-81
2024/02/05 08:32:12;;;;;;;23.27;5.27;;;;;;;;;;5074583;28;20626;-82
2024/02/05 08:34:40;;;;;;;16.67;5.07;;;;;;;;;;5075037;28;20227;-82
2024/02/05 08:37:07;;;;;;;18.23;5.57;;;;;;;;;;5078648;28;20244;-81
2024/02/05 08:39:34;;;;;;;19.77;5.77;;;;;;;;;;5095138;28;20290;-82
2024/02/05 08:42:03;;;;;;;16.07;4.80;;;;;;;;;;5094932;28;20218;-82
2024/02/05 08:44:30;;;;;;;14.70;4.87;;;;;;;;;;5094596;28;20224;-82
2024/02/05 08:46:57;;;;;;;16.30;4.80;;;;;;;;;;5094892;28;20261;-82
2024/02/05 08:49:25;;;;;;;15.27;5.13;;;;;;;;;;5095076;28;20277;-81
2024/02/05 08:51:51;;;;;;;15.27;4.83;;;;;;;;;;5094718;28;20234;-82
2024/02/05 08:54:19;;;;;;;14.67;5.20;;;;;;;;;;5094881;28;20247;-81
2024/02/05 08:56:46;;;;;;;13.90;5.30;;;;;;;;;;5094584;28;20194;-81
2024/02/05 08:59:15;;;;;;;15.50;4.63;;;;;;;;;;5094414;28;20225;-82
2024/02/05 09:01:42;;;;;;;11.73;4.53;;;;;;;;;;5094595;28;20218;-82
2024/02/05 09:04:09;;;;;;;21.57;4.97;;;;;;;;;;5094385;28;20655;-82
2024/02/05 09:06:37;;;;;;;14.90;5.20;;;;;;;;;;5094082;28;20233;-81
2024/02/05 09:09:04;;;;;;;11.43;5.03;;;;;;;;;;5094530;28;20205;-82
2024/02/05 09:11:32;;;;;;;16.13;4.93;;;;;;;;;;5094811;28;20195;-81
2024/02/05 09:13:59;;;;;;;12.87;5.23;;;;;;;;;;5094126;28;20190;-81
2024/02/05 09:16:28;;;;;;;14.07;4.37;;;;;;;;;;5094219;28;20285;-82
2024/02/05 09:18:55;;;;;;;16.40;4.63;;;;;;;;;;5094007;28;20667;-82
2024/02/05 09:21:22;;;;;;;13.93;4.70;;;;;;;;;;5094206;28;20297;-81
2024/02/05 09:23:49;;;;;;;11.23;4.37;;;;;;;;;;5094467;28;20226;-82
2024/02/05 09:26:16;;;;;;;13.77;5.03;;;;;;;;;;5093856;28;20332;-82
2024/02/05 09:28:44;;;;;;;13.90;5.47;;;;;;;;;;5093620;28;20285;-81
2024/02/05 09:31:11;;;;;;;13.40;5.80;;;;;;;;;;5094078;28;20285;-82
2024/02/05 09:33:40;;;;;;;15.17;5.83;;;;;;;;;;5093678;28;20201;-82
2024/02/05 09:36:08;;;;;;;21.03;5.43;;;;;;;;;;5093871;28;20195;-82
2024/02/05 09:38:35;;;;;;;11.50;5.60;;;;;;;;;;5092768;28;20199;-82
2024/02/05 09:41:05;;;;;;;9.63;5.00;;;;;;;;;;5088691;28;20237;-82
2024/02/05 09:43:33;;;;;;;14.90;4.70;;;;;;;;;;5073680;28;20286;-81
2024/02/05 09:46:06;;;;;;;14.53;4.63;;;;;;;;;;5073447;28;20195;-82
2024/02/05 09:48:34;;;;;;;10.43;4.30;;;;;;;;;;5073392;28;20278;-82
2024/02/05 09:51:03;;;;;;;13.50;4.50;;;;;;;;;;5073189;28;20659;-82
2024/02/05 09:53:32;;;;;;;14.03;4.73;;;;;;;;;;5073727;28;20237;-81
2024/02/05 09:55:59;;;;;;;12.20;4.40;;;;;;;;;;5072963;28;20223;-81
2024/02/05 09:58:27;;;;;;;14.57;4.30;;;;;;;;;;5073384;28;20282;-82
2024/02/05 10:00:54;;;;;;;11.03;4.17;;;;;;;;;;5073193;28;20286;-82
2024/02/05 10:03:22;;;;;;;10.10;4.03;;;;;;;;;;5072812;28;20195;-81
2024/02/05 10:05:50;;;;;;;11.47;4.00;;;;;;;;;;5072878;28;20748;-81
2024/02/05 10:08:18;;;;;;;11.60;4.23;;;;;;;;;;5072996;28;20292;-82
2024/02/05 10:10:46;;;;;;;10.30;3.90;;;;;;;;;;5073056;28;20274;-82
2024/02/05 10:13:14;;;;;;;12.03;4.43;;;;;;;;;;5072966;28;20237;-82
2024/02/05 10:15:42;;;;;;;11.70;4.10;;;;;;;;;;5072444;28;20202;-82
2024/02/05 10:18:10;;;;;;;12.17;4.00;;;;;;;;;;5072787;28;20253;-82
2024/02/05 10:20:39;;;;;;;12.23;3.97;;;;;;;;;;5072639;28;20658;-82
2024/02/05 10:23:06;;;;;;;13.10;3.80;;;;;;;;;;5072866;28;20241;-82
2024/02/05 10:25:35;;;;;;;8.87;3.73;;;;;;;;;;5072670;28;20686;-82
2024/02/05 10:28:02;;;;;;;11.33;4.03;;;;;;;;;;5072425;28;20461;-81
2024/02/05 10:30:30;;;;;;;9.40;4.13;;;;;;;;;;5072210;28;20260;-82
2024/02/05 10:32:57;;;;;;;8.83;3.80;;;;;;;;;;5073156;28;20199;-82
2024/02/05 10:35:25;;;;;;;11.00;4.30;;;;;;;;;;5072434;28;20202;-82
2024/02/05 10:37:52;;;;;;;10.53;4.13;;;;;;;;;;5082244;28;20272;-82
2024/02/05 10:40:20;;;;;;;12.27;4.10;;;;;;;;;;5092104;28;20226;-81
2024/02/05 10:42:48;;;;;;;9.97;3.43;;;;;;;;;;5092664;28;20875;-82
2024/02/05 10:45:16;;;;;;;11.27;3.37;;;;;;;;;;5092512;28;20639;-81
2024/02/05 10:47:44;;;;;;;11.17;3.00;;;;;;;;;;5092647;28;20229;-82
2024/02/05 10:50:13;;;;;;;9.00;3.60;;;;;;;;;;5092155;28;20552;-82
2024/02/05 10:52:41;;;;;;;6.70;2.67;;;;;;;;;;5092491;28;20263;-82
2024/02/05 10:55:08;;;;;;;8.47;2.33;;;;;;;;;;5092068;28;20205;-82
2024/02/05 10:57:38;;;;;;;7.40;2.53;;;;;;;;;;5092534;28;20257;-81
2024/02/05 11:00:08;;;;;;;8.23;2.30;;;;;;;;;;5092430;28;20220;-82
2024/02/05 11:02:37;;;;;;;6.83;2.07;;;;;;;;;;5092044;28;20568;-82
2024/02/05 11:05:04;;;;;;;5.10;1.73;;;;;;;;;;5092434;28;20281;-82
2024/02/05 11:07:33;;;;;;;4.60;1.60;;;;;;;;;;5091889;28;20603;-82
2024/02/05 11:10:01;;;;;;;3.10;1.40;;;;;;;;;;5092129;28;20294;-82
2024/02/05 11:12:31;;;;;;;3.60;1.50;;;;;;;;;;5091874;28;20392;-82
2024/02/05 11:15:01;;;;;;;4.97;1.60;;;;;;;;;;5092017;28;20237;-82
2024/02/05 11:17:30;;;;;;;6.50;1.60;;;;;;;;;;5092314;28;20222;-82
2024/02/05 11:19:58;;;;;;;2.77;1.30;;;;;;;;;;5091823;28;20195;-82
2024/02/05 11:22:26;;;;;;;4.07;1.23;;;;;;;;;;5091236;28;20644;-82
2024/02/05 11:24:53;;;;;;;4.40;1.50;;;;;;;;;;5092098;28;20190;-82
2024/02/05 11:27:21;;;;;;;4.97;1.53;;;;;;;;;;5091556;28;20321;-82
2024/02/05 11:29:48;;;;;;;3.03;1.70;;;;;;;;;;5091522;28;20590;-82
2024/02/05 11:32:15;;;;;;;6.33;1.67;;;;;;;;;;5091735;28;20241;-82
2024/02/05 11:34:44;;;;;;;5.53;1.43;;;;;;;;;;5091635;28;20726;-82
2024/02/05 11:37:11;;;;;;;2.13;1.20;;;;;;;;;;5091588;28;20204;-82
2024/02/05 11:39:44;;;;;;;4.40;1.40;;;;;;;;;;5091684;28;20218;-82
2024/02/05 11:42:11;;;;;;;4.37;1.90;;;;;;;;;;5091769;28;20293;-82
2024/02/05 11:44:38;;;;;;;5.57;1.97;;;;;;;;;;5091565;28;20271;-82
2024/02/05 11:47:06;;;;;;;3.50;1.73;;;;;;;;;;5091458;28;20266;-82
2024/02/05 11:49:33;;;;;;;5.57;1.90;;;;;;;;;;5091818;28;20199;-82
2024/02/05 11:52:02;;;;;;;4.40;1.90;;;;;;;;;;5090892;28;20746;-81
2024/02/05 11:54:30;;;;;;;5.67;2.10;;;;;;;;;;5091325;28;20230;-81
2024/02/05 11:56:57;;;;;;;4.33;2.33;;;;;;;;;;5091532;28;20206;-81
2024/02/05 11:59:24;;;;;;;4.23;2.23;;;;;;;;;;5091510;28;20734;-81
2024/02/05 12:01:52;;;;;;;4.93;2.60;;;;;;;;;;5094016;28;20200;-82
2024/02/05 12:04:19;;;;;;;4.50;2.27;;;;;;;;;;5095545;28;20228;-82
2024/02/05 12:06:48;;;;;;;6.47;2.30;;;;;;;;;;5095399;28;20281;-82
2024/02/05 12:09:17;;;;;;;5.33;1.60;;;;;;;;;;5095546;28;20746;-81
2024/02/05 12:11:44;;;;;;;5.03;1.80;;;;;;;;;;5095250;28;20737;-81
2024/02/05 12:14:12;;;;;;;3.43;1.70;;;;;;;;;;5095492;28;20281;-81
2024/02/05 12:16:40;;;;;;;5.70;2.30;;;;;;;;;;5095386;28;20201;-82
2024/02/05 12:19:08;;;;;;;4.50;1.93;;;;;;;;;;5095304;28;20195;-82
2024/02/05 12:21:36;;;;;;;5.53;2.47;;;;;;;;;;5095423;28;20198;-81
2024/02/05 12:24:06;;;;;;;3.87;2.30;;;;;;;;;;5095416;28;20281;-82
2024/02/05 12:26:34;;;;;;;5.43;1.87;;;;;;;;;;5094790;28;20229;-82
2024/02/05 12:29:01;;;;;;;7.10;2.70;;;;;;;;;;5095160;28;20311;-83
2024/02/05 12:31:29;;;;;;;4.23;2.30;;;;;;;;;;5095346;28;20194;-82
2024/02/05 12:33:57;;;;;;;7.83;2.10;;;;;;;;;;5095058;28;20198;-83
2024/02/05 12:36:24;;;;;;;4.57;2.53;;;;;;;;;;5094601;28;20222;-82
2024/02/05 12:38:52;;;;;;;5.50;2.80;;;;;;;;;;5094828;28;20721;-82
2024/02/05 12:41:19;;;;;;;8.47;3.60;;;;;;;;;;5094910;28;20198;-82
2024/02/05 12:43:48;;;;;;;6.10;2.97;;;;;;;;;;5095135;28;20283;-81
2024/02/05 12:46:15;;;;;;;5.80;2.37;;;;;;;;;;5095059;28;20229;-82
2024/02/05 12:48:42;;;;;;;5.70;2.37;;;;;;;;;;5094729;28;20222;-82
2024/02/05 12:51:10;;;;;;;4.50;2.30;;;;;;;;;;5094578;28;20241;-82
2024/02/05 12:53:39;;;;;;;4.23;2.13;;;;;;;;;;5094723;28;20278;-81
2024/02/05 12:56:06;;;;;;;5.37;2.57;;;;;;;;;;5094779;28;20294;-82
2024/02/05 12:58:33;;;;;;;4.33;2.50;;;;;;;;;;5094610;28;20763;-82
2024/02/05 13:01:02;;;;;;;3.53;1.30;;;;;;;;;;5094815;28;20702;-82
2024/02/05 13:03:32;;;;;;;2.70;1.40;;;;;;;;;;5094568;28;20195;-83
2024/02/05 13:06:00;;;;;;;5.30;1.70;;;;;;;;;;5093772;28;20757;-82
2024/02/05 13:08:27;;;;;;;1.63;1.33;;;;;;;;;;5094690;28;20258;-82
2024/02/05 13:10:54;;;;;;;3.03;1.17;;;;;;;;;;5094563;28;20255;-82
2024/02/05 13:13:22;;;;;;;1.80;1.27;;;;;;;;;;5094192;28;20195;-82
2024/02/05 13:15:50;;;;;;;2.57;1.63;;;;;;;;;;5093953;28;20201;-81
2024/02/05 13:18:18;;;;;;;2.57;1.60;;;;;;;;;;5094605;28;20201;-81
2024/02/05 13:20:45;;;;;;;3.60;1.30;;;;;;;;;;5093994;28;20397;-81
2024/02/05 13:23:13;;;;;;;5.60;1.50;;;;;;;;;;5094191;28;20285;-82
2024/02/05 13:25:40;;;;;;;3.80;1.40;;;;;;;;;;5094237;28;20669;-81
2024/02/05 13:28:07;;;;;;;2.83;1.57;;;;;;;;;;5094159;28;20673;-81
2024/02/05 13:30:35;;;;;;;2.97;1.23;;;;;;;;;;5094014;28;20205;-82
2024/02/05 13:33:03;;;;;;;3.70;1.50;;;;;;;;;;5093677;28;20205;-81
2024/02/05 13:35:31;;;;;;;2.93;1.40;;;;;;;;;;5094147;28;20195;-81
2024/02/05 13:37:58;;;;;;;3.77;1.53;;;;;;;;;;5093846;28;20244;-81
2024/02/05 13:40:26;;;;;;;4.83;1.50;;;;;;;;;;5093836;28;20281;-81
2024/02/05 13:42:53;;;;;;;2.93;1.80;;;;;;;;;;5093654;28;20195;-82
2024/02/05 13:45:22;;;;;;;2.97;1.73;;;;;;;;;;5093974;28;20203;-82
2024/02/05 13:47:51;;;;;;;1.70;1.33;;;;;;;;;;5093269;28;20684;-81
2024/02/05 13:50:19;;;;;;;2.10;1.30;;;;;;;;;;5093836;28;20190;-81
2024/02/05 13:52:48;;;;;;;2.70;1.60;;;;;;;;;;5093393;28;20205;-82
2024/02/05 13:55:15;;;;;;;3.73;1.90;;;;;;;;;;5092977;28;20205;-81
2024/02/05 13:57:43;;;;;;;2.53;2.00;;;;;;;;;;5075980;28;20225;-82
2024/02/05 14:00:10;;;;;;;2.90;1.67;;;;;;;;;;5093383;28;20251;-82
2024/02/05 14:02:38;;;;;;;3.07;1.90;;;;;;;;;;5093383;28;20279;-81
2024/02/05 14:05:05;;;;;;;2.80;2.30;;;;;;;;;;5093195;28;20194;-81
2024/02/05 14:07:32;;;;;;;3.67;2.30;;;;;;;;;;5093150;28;20570;-82
2024/02/05 14:10:01;;;;;;;3.23;2.30;;;;;;;;;;5093480;28;20195;-81
2024/02/05 14:12:28;;;;;;;3.27;2.57;;;;;;;;;;5093144;28;20230;-81
2024/02/05 14:14:55;;;;;;;2.80;2.50;;;;;;;;;;5093236;28;20311;-82
2024/02/05 14:17:23;;;;;;;3.37;2.53;;;;;;;;;;5092695;28;20201;-82
2024/02/05 14:19:50;;;;;;;4.77;3.13;;;;;;;;;;5093125;28;20221;-82
2024/02/05 14:22:18;;;;;;;3.70;2.90;;;;;;;;;;5093115;28;20230;-82
2024/02/05 14:24:45;;;;;;;6.27;3.67;;;;;;;;;;5092501;28;20206;-82
2024/02/05 14:27:13;;;;;;;4.53;3.17;;;;;;;;;;5093081;28;20329;-82
2024/02/05 14:29:42;;;;;;;3.50;3.20;;;;;;;;;;5092958;28;20316;-82
2024/02/05 14:32:10;;;;;;;4.60;3.70;;;;;;;;;;5092496;28;20221;-82
2024/02/05 14:34:37;;;;;;;4.03;3.63;;;;;;;;;;5092708;28;20194;-81